Time;durP1;ratioP1;P1;durP2;ratioP2;P2;SDS_P1;SDS_P2;PMS_P1;PMS_P2;Temp;Humidity;BMP_temperature;BMP_pressure;BME280_temperature;BME280_humidity;BME280_pressure;Samples;Min_cycle;Max_cycle;Signal;HPM_P1;HPM_P2
2021/03/28 00:01:20;;;;;;;68.15;43.45;;;;;;;8.68;100.00;102112.63;5002354;28;20030;-72
2021/03/28 00:04:09;;;;;;;62.08;38.65;;;;;;;9.06;100.00;102116.56;5015694;28;20029;-73
2021/03/28 00:07:02;;;;;;;65.47;42.80;;;;;;;9.31;100.00;102119.44;5016579;28;20026;-73
2021/03/28 00:09:54;;;;;;;61.55;39.25;;;;;;;9.16;100.00;102124.50;5016100;28;20116;-72
2021/03/28 00:12:40;;;;;;;58.15;36.42;;;;;;;9.40;100.00;102122.16;5014557;28;20172;-72
2021/03/28 00:15:29;;;;;;;66.20;36.75;;;;;;;9.02;100.00;102120.88;5016323;28;20504;-72
2021/03/28 00:18:33;;;;;;;65.63;37.75;;;;;;;8.62;100.00;102123.88;5015770;28;20033;-72
2021/03/28 00:21:23;;;;;;;53.30;34.65;;;;;;;8.67;100.00;102116.09;5016615;28;20030;-71
2021/03/28 00:24:11;;;;;;;57.38;33.85;;;;;;;8.91;100.00;102121.59;5014951;28;20025;-72
2021/03/28 00:27:20;;;;;;;49.88;29.73;;;;;;;8.50;100.00;102112.38;5015182;28;20523;-72
2021/03/28 00:30:15;;;;;;;43.22;26.63;;;;;;;8.19;100.00;102112.78;5001869;28;20048;-72
2021/03/28 00:33:16;;;;;;;46.97;26.77;;;;;;;8.31;100.00;102111.25;5015179;28;20462;-73
2021/03/28 00:36:07;;;;;;;64.90;37.30;;;;;;;8.41;100.00;102115.75;5014795;28;20026;-72
2021/03/28 00:38:55;;;;;;;73.90;41.50;;;;;;;8.21;100.00;102116.34;5002015;28;20033;-73
2021/03/28 00:42:02;;;;;;;94.90;54.13;;;;;;;7.84;100.00;102127.06;5014714;28;20099;-72
2021/03/28 00:44:52;;;;;;;101.70;57.08;;;;;;;8.33;100.00;102114.75;5015142;28;20029;-72
2021/03/28 00:47:39;;;;;;;91.10;55.00;;;;;;;9.06;100.00;102119.16;5001704;28;20030;-71
2021/03/28 00:50:33;;;;;;;101.95;56.42;;;;;;;8.77;100.00;102126.66;5015697;28;20022;-72
2021/03/28 00:53:49;;;;;;;97.60;54.75;;;;;;;8.91;100.00;102124.22;5014806;28;20033;-72
2021/03/28 00:56:45;;;;;;;98.63;57.78;;;;;;;8.44;100.00;102115.78;4989206;28;20048;-72
2021/03/28 00:59:53;;;;;;;107.38;62.03;;;;;;;8.18;100.00;102119.75;5014684;28;20087;-71
2021/03/28 01:03:01;;;;;;;60.05;37.42;;;;;;;7.93;100.00;102117.63;5001471;28;20081;-72
2021/03/28 01:05:53;;;;;;;47.75;30.63;;;;;;;7.91;100.00;102114.09;5014186;28;20390;-73
2021/03/28 01:08:52;;;;;;;87.47;52.00;;;;;;;8.20;100.00;102114.56;5014970;28;20034;-72
2021/03/28 01:11:38;;;;;;;116.65;66.05;;;;;;;8.23;100.00;102105.06;5014414;28;20053;-72
2021/03/28 01:14:41;;;;;;;119.50;65.47;;;;;;;8.39;100.00;102106.13;5000439;28;20041;-72
2021/03/28 01:17:46;;;;;;;124.93;68.65;;;;;;;8.63;100.00;102104.72;5014864;28;20362;-73
2021/03/28 01:20:59;;;;;;;132.88;74.47;;;;;;;8.52;100.00;102108.94;5014579;28;20022;-72
2021/03/28 01:23:54;;;;;;;133.82;73.78;;;;;;;8.50;100.00;102104.53;5013034;28;20109;-73
2021/03/28 01:27:16;;;;;;;140.50;78.80;;;;;;;9.07;100.00;102100.88;5015515;28;20030;-72
2021/03/28 01:30:07;;;;;;;138.65;80.15;;;;;;;8.26;100.00;102099.88;5014267;28;20398;-72
2021/03/28 01:33:04;;;;;;;198.00;107.47;;;;;;;8.72;100.00;102104.84;5014068;28;20386;-72
2021/03/28 01:36:11;;;;;;;142.02;81.10;;;;;;;8.49;100.00;102111.50;5014978;28;20108;-72
2021/03/28 01:39:23;;;;;;;182.23;96.55;;;;;;;8.24;100.00;102104.19;5014601;28;20029;-73
2021/03/28 01:42:28;;;;;;;178.80;95.28;;;;;;;8.11;100.00;102110.06;5013657;28;20348;-72
2021/03/28 01:45:34;;;;;;;167.02;90.15;;;;;;;7.68;100.00;102110.25;5014004;28;20034;-71
2021/03/28 01:48:39;;;;;;;236.68;124.28;;;;;;;7.63;100.00;102116.28;5000233;28;20037;-72
2021/03/28 01:51:42;;;;;;;211.90;107.85;;;;;;;7.71;100.00;102115.53;5013574;28;20054;-72
2021/03/28 01:54:38;;;;;;;168.93;90.35;;;;;;;7.62;100.00;102117.09;5014540;28;20025;-72
2021/03/28 01:57:33;;;;;;;130.93;68.15;;;;;;;7.45;100.00;102114.22;5014210;28;20033;-72
2021/03/28 02:00:27;;;;;;;89.28;51.03;;;;;;;7.47;100.00;102115.13;5013584;28;20041;-71
2021/03/28 02:03:24;;;;;;;86.50;47.88;;;;;;;8.14;100.00;102104.91;5000198;28;20033;-72
2021/03/28 02:06:34;;;;;;;98.43;53.47;;;;;;;8.05;100.00;102109.09;5014543;28;20026;-72
2021/03/28 02:09:50;;;;;;;82.88;49.05;;;;;;;8.43;100.00;102102.72;5013526;28;20041;-71
2021/03/28 02:13:00;;;;;;;57.40;34.85;;;;;;;8.34;100.00;102103.47;5013071;28;20021;-72
2021/03/28 02:16:05;;;;;;;50.65;32.38;;;;;;;8.49;100.00;102100.19;5014053;28;20052;-72
2021/03/28 02:19:00;;;;;;;60.63;33.78;;;;;;;8.36;100.00;102104.38;5013082;28;20076;-72
2021/03/28 02:22:13;;;;;;;49.83;30.10;;;;;;;8.30;100.00;102101.69;5014409;28;20593;-72
2021/03/28 02:25:09;;;;;;;37.70;22.80;;;;;;;8.28;100.00;102105.13;5014365;28;20025;-71
2021/03/28 02:28:09;;;;;;;36.90;21.95;;;;;;;8.31;100.00;102106.03;5013297;28;20033;-72
2021/03/28 02:31:11;;;;;;;31.35;19.50;;;;;;;8.06;100.00;102114.34;5013687;28;20034;-72
2021/03/28 02:34:18;;;;;;;28.20;17.83;;;;;;;7.76;100.00;102110.41;5013775;28;20045;-72
2021/03/28 02:37:22;;;;;;;75.20;41.60;;;;;;;8.40;100.00;102110.53;5017039;28;20054;-72
2021/03/28 02:40:11;;;;;;;101.60;53.60;;;;;;;8.36;100.00;102106.97;5018362;28;20034;-73
2021/03/28 02:43:24;;;;;;;88.80;48.30;;;;;;;8.11;100.00;102115.28;5018020;28;20034;-72
2021/03/28 02:46:26;;;;;;;55.58;33.42;;;;;;;8.57;100.00;102109.88;5003895;28;20022;-73
2021/03/28 02:49:33;;;;;;;34.42;19.88;;;;;;;8.28;100.00;102119.03;5017139;28;20124;-72
2021/03/28 02:52:39;;;;;;;27.27;16.77;;;;;;;8.52;100.00;102118.53;5017877;28;20045;-74
2021/03/28 02:55:25;;;;;;;22.90;14.57;;;;;;;8.39;100.00;102117.47;5018191;28;20044;-73
2021/03/28 02:58:38;;;;;;;24.85;14.10;;;;;;;8.18;100.00;102126.69;5016946;28;20087;-74
2021/03/28 03:01:26;;;;;;;25.65;15.10;;;;;;;8.30;100.00;102125.19;5017942;28;20026;-75
2021/03/28 03:04:56;;;;;;;18.38;12.88;;;;;;;8.23;100.00;102127.66;5017847;28;20057;-75
2021/03/28 03:08:00;;;;;;;19.58;12.18;;;;;;;8.21;100.00;102138.13;4994685;28;20026;-74
2021/03/28 03:11:05;;;;;;;18.38;11.98;;;;;;;8.30;100.00;102132.13;5017077;28;20178;-74
2021/03/28 03:14:12;;;;;;;19.50;13.00;;;;;;;8.39;100.00;102130.53;5016596;28;20045;-75
2021/03/28 03:17:35;;;;;;;19.55;12.65;;;;;;;8.70;100.00;102135.31;5016524;28;20037;-75
2021/03/28 03:20:23;;;;;;;17.13;11.85;;;;;;;8.58;100.00;102136.88;5016506;28;20113;-73
2021/03/28 03:23:49;;;;;;;18.45;11.73;;;;;;;8.36;100.00;102137.44;5017014;28;20040;-75
2021/03/28 03:26:40;;;;;;;19.52;12.45;;;;;;;8.25;100.00;102144.25;5016186;28;20323;-74
2021/03/28 03:30:00;;;;;;;17.67;12.38;;;;;;;8.41;100.00;102154.06;5017430;28;20112;-74
2021/03/28 03:33:23;;;;;;;22.13;13.05;;;;;;;8.04;100.00;102155.19;5016261;28;20049;-73
2021/03/28 03:36:12;;;;;;;18.52;12.32;;;;;;;7.95;100.00;102160.28;5015960;28;20022;-74
2021/03/28 03:39:06;;;;;;;21.25;12.23;;;;;;;8.09;100.00;102161.38;5017119;28;20033;-74
2021/03/28 03:42:24;;;;;;;17.95;12.60;;;;;;;7.98;100.00;102170.78;5016459;28;20048;-73
2021/03/28 03:45:47;;;;;;;20.92;12.10;;;;;;;8.25;100.00;102165.13;5002906;28;20087;-74
2021/03/28 03:48:57;;;;;;;18.55;12.52;;;;;;;8.08;100.00;102174.41;5015343;28;20018;-74
2021/03/28 03:51:59;;;;;;;18.83;12.55;;;;;;;8.12;100.00;102171.84;5015715;28;20470;-75
2021/03/28 03:54:50;;;;;;;19.25;12.90;;;;;;;7.40;100.00;102177.56;5015726;28;20025;-74
2021/03/28 03:57:45;;;;;;;20.60;13.18;;;;;;;7.25;100.00;102174.66;5016370;28;20033;-74
2021/03/28 04:00:47;;;;;;;23.20;12.98;;;;;;;7.11;100.00;102179.59;5015606;28;20481;-74
2021/03/28 04:03:38;;;;;;;20.10;13.70;;;;;;;7.78;100.00;102187.84;5015658;28;20069;-74
2021/03/28 04:07:01;;;;;;;24.80;14.00;;;;;;;8.02;100.00;102197.78;5016073;28;20037;-74
2021/03/28 04:10:17;;;;;;;19.00;12.98;;;;;;;7.64;100.00;102193.66;5015583;28;20026;-73
2021/03/28 04:13:21;;;;;;;19.02;13.13;;;;;;;7.20;100.00;102195.41;5002079;28;20150;-74
2021/03/28 04:16:20;;;;;;;19.83;14.05;;;;;;;7.32;100.00;102203.47;5016627;28;20354;-74
2021/03/28 04:19:20;;;;;;;21.75;14.25;;;;;;;6.90;100.00;102201.75;5015817;28;20026;-74
2021/03/28 04:22:43;;;;;;;27.38;16.25;;;;;;;6.97;100.00;102201.91;5015052;28;20355;-74
2021/03/28 04:25:53;;;;;;;24.30;15.23;;;;;;;7.21;100.00;102199.81;5002088;28;20113;-74
2021/03/28 04:28:55;;;;;;;29.45;17.00;;;;;;;6.67;100.00;102200.38;5014910;28;20450;-75
2021/03/28 04:31:41;;;;;;;27.63;16.85;;;;;;;6.72;100.00;102197.03;5001241;28;20030;-74
2021/03/28 04:34:39;;;;;;;27.73;16.85;;;;;;;7.50;100.00;102208.16;5001210;28;20113;-73
2021/03/28 04:38:02;;;;;;;27.63;15.63;;;;;;;7.54;100.00;102196.94;5002483;28;20034;-74
2021/03/28 04:41:10;;;;;;;27.55;15.82;;;;;;;7.03;100.00;102201.16;5014827;28;20022;-75
2021/03/28 04:44:24;;;;;;;27.63;16.13;;;;;;;7.11;100.00;102197.84;5015361;28;20482;-74
2021/03/28 04:47:28;;;;;;;24.63;15.63;;;;;;;7.58;100.00;102207.47;5015095;28;20029;-75
2021/03/28 04:50:48;;;;;;;26.52;16.02;;;;;;;7.66;100.00;102207.59;5014540;28;20064;-75
2021/03/28 04:54:05;;;;;;;26.88;16.50;;;;;;;8.00;100.00;102210.81;5001586;28;20088;-75
2021/03/28 04:57:05;;;;;;;26.63;16.30;;;;;;;7.85;100.00;102204.47;5015019;28;20422;-75
2021/03/28 05:00:05;;;;;;;26.90;15.75;;;;;;;8.21;100.00;102211.22;5015464;28;20021;-73
2021/03/28 05:03:16;;;;;;;23.48;15.43;;;;;;;8.04;100.00;102212.63;5014859;28;20466;-74
2021/03/28 05:06:35;;;;;;;25.90;15.40;;;;;;;7.93;100.00;102205.47;5014418;28;20320;-74
2021/03/28 05:10:09;;;;;;;25.83;16.33;;;;;;;8.63;100.00;102205.72;5001745;28;20442;-74
2021/03/28 05:13:34;;;;;;;23.58;15.73;;;;;;;8.69;100.00;102203.22;5000473;28;20021;-74
2021/03/28 05:16:50;;;;;;;26.17;17.10;;;;;;;9.21;100.00;102195.19;5014143;28;20112;-74
2021/03/28 05:19:57;;;;;;;23.88;16.52;;;;;;;9.02;100.00;102206.25;5015332;28;20109;-76
2021/03/28 05:23:05;;;;;;;28.02;17.25;;;;;;;9.38;100.00;102212.81;5014033;28;20030;-74
2021/03/28 05:26:29;;;;;;;25.15;17.20;;;;;;;9.35;100.00;102219.72;5013976;28;20080;-76
2021/03/28 05:29:21;;;;;;;25.63;16.30;;;;;;;9.50;100.00;102219.91;5002916;28;20033;-76
2021/03/28 05:32:19;;;;;;;24.65;16.85;;;;;;;9.60;100.00;102221.75;5000163;28;20026;-75
2021/03/28 05:35:33;;;;;;;22.23;15.18;;;;;;;9.72;100.00;102220.16;5014981;28;20069;-77
2021/03/28 05:38:49;;;;;;;24.02;14.90;;;;;;;9.79;100.00;102221.06;5013807;28;20467;-76
2021/03/28 05:41:52;;;;;;;23.00;15.35;;;;;;;9.20;100.00;102211.69;5014524;28;20335;-77
2021/03/28 05:44:47;;;;;;;22.30;15.73;;;;;;;9.57;100.00;102206.03;5014916;28;20092;-78
2021/03/28 05:48:03;;;;;;;23.35;14.95;;;;;;;9.84;100.00;102216.75;5014884;28;20025;-76
2021/03/28 05:50:49;;;;;;;25.25;14.68;;;;;;;9.38;100.00;102223.28;4999759;28;20053;-73
2021/03/28 05:54:24;;;;;;;26.52;15.25;;;;;;;9.68;100.00;102214.84;5014149;28;20133;-75
2021/03/28 05:57:28;;;;;;;23.23;15.98;;;;;;;10.09;100.00;102229.25;5013817;28;20049;-75
2021/03/28 06:00:32;;;;;;;23.08;15.30;;;;;;;9.97;100.00;102236.97;5013496;28;20348;-74
2021/03/28 06:03:49;;;;;;;22.58;15.35;;;;;;;10.35;100.00;102226.81;5013731;28;20026;-75
2021/03/28 06:07:08;;;;;;;23.85;15.27;;;;;;;10.24;100.00;102231.97;4999298;28;20026;-76
2021/03/28 06:10:25;;;;;;;24.83;14.35;;;;;;;10.06;100.00;102232.69;5013030;28;20105;-77
2021/03/28 06:13:13;;;;;;;20.42;14.07;;;;;;;10.38;100.00;102232.09;5013138;28;20461;-78
2021/03/28 06:16:38;;;;;;;21.17;13.10;;;;;;;10.58;100.00;102226.13;5000934;28;20096;-76
2021/03/28 06:20:01;;;;;;;22.98;13.60;;;;;;;10.58;100.00;102234.00;5013522;28;20022;-75
2021/03/28 06:23:25;;;;;;;22.10;14.00;;;;;;;10.44;100.00;102234.78;4999326;28;20026;-74
2021/03/28 06:26:16;;;;;;;23.80;14.00;;;;;;;10.74;100.00;102243.72;4999369;28;20104;-75
2021/03/28 06:29:27;;;;;;;20.48;14.18;;;;;;;10.72;100.00;102240.19;5014376;28;20049;-76
2021/03/28 06:32:39;;;;;;;22.00;14.10;;;;;;;10.81;100.00;102250.72;5013187;28;20049;-74
2021/03/28 06:35:31;;;;;;;20.90;14.10;;;;;;;10.78;100.00;102257.72;5012634;28;20034;-75
2021/03/28 06:38:53;;;;;;;22.30;14.02;;;;;;;10.70;100.00;102260.28;5014307;28;20026;-76
2021/03/28 06:42:01;;;;;;;23.05;14.02;;;;;;;10.83;100.00;102267.34;4999745;28;20030;-75
2021/03/28 06:44:49;;;;;;;20.63;14.27;;;;;;;11.00;100.00;102259.56;5013196;28;20022;-76
2021/03/28 06:47:44;;;;;;;23.33;13.52;;;;;;;10.80;100.00;102267.34;5013591;28;20042;-74
2021/03/28 06:50:53;;;;;;;23.60;14.35;;;;;;;11.25;100.00;102267.56;5012876;28;20046;-75
2021/03/28 06:54:12;;;;;;;20.23;13.73;;;;;;;11.19;100.00;102267.56;5013874;28;20084;-75
2021/03/28 06:57:47;;;;;;;18.25;12.20;;;;;;;11.03;100.00;102259.59;5012828;28;20100;-76
2021/03/28 07:00:38;;;;;;;15.95;12.05;;;;;;;11.25;100.00;102258.84;4974635;28;20042;-74
2021/03/28 07:04:08;;;;;;;17.20;12.63;;;;;;;11.56;100.00;102258.94;5014223;28;20065;-75
2021/03/28 07:07:27;;;;;;;17.65;12.73;;;;;;;11.37;100.00;102272.88;5012305;28;20037;-75
2021/03/28 07:10:29;;;;;;;19.98;14.13;;;;;;;11.32;100.00;102266.72;5013025;28;20450;-76
2021/03/28 07:13:34;;;;;;;20.27;14.68;;;;;;;11.51;100.00;102273.81;4999571;28;20032;-78
2021/03/28 07:16:29;;;;;;;22.27;15.20;;;;;;;11.61;100.00;102278.25;5013507;28;20425;-76
2021/03/28 07:19:37;;;;;;;21.58;15.00;;;;;;;11.60;100.00;102267.69;5013430;28;20450;-75
2021/03/28 07:23:00;;;;;;;27.45;16.67;;;;;;;11.38;100.00;102272.03;5016596;28;20088;-76
2021/03/28 07:26:04;;;;;;;21.70;15.27;;;;;;;11.58;100.00;102282.59;5016379;28;20049;-76
2021/03/28 07:29:18;;;;;;;23.77;16.42;;;;;;;11.79;100.00;102285.31;5003560;28;20064;-77
2021/03/28 07:32:35;;;;;;;24.35;17.08;;;;;;;11.99;100.00;102276.59;5016047;28;20018;-76
2021/03/28 07:35:37;;;;;;;24.73;18.05;;;;;;;12.02;100.00;102281.84;5017237;28;20040;-74
2021/03/28 07:38:46;;;;;;;25.90;18.02;;;;;;;12.23;100.00;102287.13;5015836;28;20022;-75
2021/03/28 07:41:40;;;;;;;23.35;16.23;;;;;;;12.40;100.00;102285.38;5016007;28;20045;-76
2021/03/28 07:44:35;;;;;;;21.98;15.00;;;;;;;12.36;100.00;102277.47;5016846;28;20450;-75
2021/03/28 07:47:48;;;;;;;25.00;14.90;;;;;;;12.50;100.00;102275.75;5016596;28;20029;-76
2021/03/28 07:50:50;;;;;;;20.13;14.43;;;;;;;13.08;100.00;102278.31;5015299;28;20479;-75
2021/03/28 07:54:13;;;;;;;20.63;13.90;;;;;;;13.03;100.00;102280.06;5016384;28;20034;-74
2021/03/28 07:57:15;;;;;;;19.17;13.82;;;;;;;12.78;100.00;102283.59;5002142;28;20112;-76
2021/03/28 08:00:38;;;;;;;18.00;13.70;;;;;;;13.32;100.00;102291.38;5016235;28;20040;-76
2021/03/28 08:03:33;;;;;;;21.30;13.73;;;;;;;13.20;100.00;102291.44;5015697;28;20034;-74
2021/03/28 08:06:42;;;;;;;19.70;13.52;;;;;;;13.73;100.00;102296.44;5015308;28;20036;-75
2021/03/28 08:09:34;;;;;;;18.20;14.02;;;;;;;14.14;100.00;102300.59;5016244;28;20450;-75
2021/03/28 08:12:29;;;;;;;18.30;12.98;;;;;;;14.35;100.00;102297.81;5001219;28;20033;-75
2021/03/28 08:15:51;;;;;;;17.65;12.55;;;;;;;14.83;98.48;102284.19;5014819;28;20031;-75
2021/03/28 08:19:01;;;;;;;17.45;13.20;;;;;;;14.88;98.12;102287.66;5015242;28;20068;-76
2021/03/28 08:22:22;;;;;;;19.50;13.25;;;;;;;15.37;94.44;102287.16;5016267;28;20049;-74
2021/03/28 08:25:30;;;;;;;20.50;12.95;;;;;;;15.84;84.83;102288.28;5014963;28;20026;-74
2021/03/28 08:28:37;;;;;;;20.38;11.80;;;;;;;15.68;85.73;102286.75;5015067;28;20037;-75
2021/03/28 08:31:29;;;;;;;15.75;12.02;;;;;;;16.05;81.28;102293.28;5001422;28;20018;-75
2021/03/28 08:34:52;;;;;;;13.82;11.13;;;;;;;16.42;74.79;102296.22;5001854;28;20169;-74
2021/03/28 08:37:44;;;;;;;18.35;12.93;;;;;;;16.11;73.52;102292.31;5001217;28;20033;-75
2021/03/28 08:40:54;;;;;;;17.02;10.90;;;;;;;16.48;69.31;102291.69;5015342;28;20049;-75
2021/03/28 08:44:25;;;;;;;15.20;10.65;;;;;;;16.45;68.09;102289.13;5014686;28;20026;-76
2021/03/28 08:47:48;;;;;;;16.33;10.65;;;;;;;16.82;65.28;102279.66;5015217;28;20044;-76
2021/03/28 08:50:40;;;;;;;18.33;11.13;;;;;;;16.78;64.29;102283.25;5014748;28;20524;-76
2021/03/28 08:53:38;;;;;;;17.13;11.43;;;;;;;16.99;65.52;102279.31;5000629;28;20034;-76
2021/03/28 08:57:01;;;;;;;14.52;11.52;;;;;;;16.98;65.87;102269.63;5014275;28;20366;-75
2021/03/28 09:00:05;;;;;;;15.27;11.30;;;;;;;17.40;65.62;102271.44;5001286;28;20381;-75
2021/03/28 09:03:03;;;;;;;14.35;11.30;;;;;;;17.71;64.22;102268.13;5014514;28;20049;-75
2021/03/28 09:06:01;;;;;;;19.00;11.95;;;;;;;17.92;63.55;102272.09;5015753;28;20105;-76
2021/03/28 09:09:00;;;;;;;14.45;10.82;;;;;;;17.64;63.31;102266.50;5015651;28;20133;-76
2021/03/28 09:12:16;;;;;;;19.75;10.98;;;;;;;17.63;63.63;102263.88;5014810;28;20034;-75
2021/03/28 09:15:26;;;;;;;15.95;11.07;;;;;;;18.42;60.53;102267.34;5014220;28;20033;-76
2021/03/28 09:18:24;;;;;;;14.60;10.40;;;;;;;18.39;59.20;102263.88;5014305;28;20041;-75
2021/03/28 09:21:48;;;;;;;15.32;9.98;;;;;;;17.90;59.27;102266.81;5015566;28;20040;-75
2021/03/28 09:24:34;;;;;;;13.40;9.93;;;;;;;17.96;59.70;102260.47;5000641;28;20093;-75
2021/03/28 09:27:27;;;;;;;13.50;9.18;;;;;;;18.06;59.06;102260.25;5000158;28;20451;-75
2021/03/28 09:30:37;;;;;;;12.23;9.68;;;;;;;18.21;58.01;102266.97;5013611;28;20344;-75
2021/03/28 09:33:44;;;;;;;15.15;9.38;;;;;;;18.10;59.09;102261.91;5014091;28;20366;-75
2021/03/28 09:36:56;;;;;;;15.98;10.00;;;;;;;17.83;60.12;102257.25;5014694;28;20022;-75
2021/03/28 09:40:12;;;;;;;15.35;9.77;;;;;;;18.34;59.76;102257.81;5000160;28;20033;-75
2021/03/28 09:43:14;;;;;;;14.48;10.13;;;;;;;18.74;60.20;102250.56;5014151;28;20473;-75
2021/03/28 09:46:28;;;;;;;15.13;10.13;;;;;;;18.21;60.03;102243.09;5013266;28;20034;-75
2021/03/28 09:49:39;;;;;;;13.77;10.18;;;;;;;18.17;61.73;102242.25;5013692;28;20026;-76
2021/03/28 09:52:58;;;;;;;14.82;10.05;;;;;;;17.86;62.85;102232.44;5014143;28;20204;-76
2021/03/28 09:56:17;;;;;;;27.63;10.90;;;;;;;17.97;65.45;102246.31;5013743;28;20041;-74
2021/03/28 09:59:37;;;;;;;13.43;10.55;;;;;;;18.17;66.21;102238.75;5013632;28;20026;-75
2021/03/28 10:03:02;;;;;;;16.95;11.57;;;;;;;17.91;69.47;102250.00;4999616;28;20482;-75
2021/03/28 10:05:57;;;;;;;15.48;11.15;;;;;;;18.13;69.36;102242.41;5013122;28;20113;-75
2021/03/28 10:08:47;;;;;;;15.75;11.52;;;;;;;17.88;70.40;102246.53;5013389;28;20048;-75
2021/03/28 10:11:57;;;;;;;16.85;11.45;;;;;;;18.03;72.54;102244.41;5013743;28;20034;-76
2021/03/28 10:15:04;;;;;;;16.50;11.02;;;;;;;18.39;67.43;102237.34;5014497;28;20108;-77
2021/03/28 10:18:12;;;;;;;17.35;11.65;;;;;;;18.47;66.97;102236.25;5013688;28;20025;-75
2021/03/28 10:21:23;;;;;;;19.13;11.32;;;;;;;18.48;66.97;102235.31;5013105;28;20029;-74
2021/03/28 10:24:37;;;;;;;16.17;11.55;;;;;;;18.76;66.71;102227.47;5012884;28;20093;-75
2021/03/28 10:27:59;;;;;;;16.90;11.18;;;;;;;18.80;66.46;102234.47;5013379;28;20034;-75
2021/03/28 10:30:57;;;;;;;22.10;10.88;;;;;;;18.75;62.93;102225.75;5012983;28;20030;-74
2021/03/28 10:33:52;;;;;;;18.30;10.23;;;;;;;18.64;63.12;102222.50;5014068;28;20030;-75
2021/03/28 10:36:57;;;;;;;14.70;10.15;;;;;;;18.98;64.76;102226.84;5014267;28;20458;-75
2021/03/28 10:40:01;;;;;;;15.48;11.02;;;;;;;19.14;64.34;102219.34;5014328;28;20045;-75
2021/03/28 10:43:01;;;;;;;14.50;10.38;;;;;;;18.95;63.62;102229.63;5012807;28;20026;-75
2021/03/28 10:46:31;;;;;;;14.43;9.38;;;;;;;19.30;61.61;102207.38;5013696;28;20029;-75
2021/03/28 10:49:54;;;;;;;15.90;9.93;;;;;;;18.97;60.95;102216.28;4964384;28;20030;-74
2021/03/28 10:53:07;;;;;;;18.33;10.05;;;;;;;19.60;59.22;102214.41;5014068;28;20069;-76
2021/03/28 10:56:19;;;;;;;14.57;9.80;;;;;;;19.48;59.21;102206.81;5014953;28;20034;-76
2021/03/28 10:59:29;;;;;;;15.32;9.55;;;;;;;19.80;59.75;102203.16;4991743;28;20054;-75
2021/03/28 11:02:46;;;;;;;14.95;9.55;;;;;;;19.36;58.36;102209.84;5017938;28;20108;-75
2021/03/28 11:06:04;;;;;;;13.77;10.02;;;;;;;19.62;58.05;102209.03;5017977;28;20056;-75
2021/03/28 11:09:02;;;;;;;14.80;10.18;;;;;;;19.78;58.73;102197.88;4978426;28;20129;-75
2021/03/28 11:12:00;;;;;;;14.45;10.23;;;;;;;20.23;57.99;102191.09;5017214;28;20072;-76
2021/03/28 11:15:21;;;;;;;14.50;9.93;;;;;;;19.77;59.03;102205.91;5017121;28;20410;-75
2021/03/28 11:18:25;;;;;;;14.77;10.50;;;;;;;19.98;59.20;102214.09;5016666;28;20041;-75
2021/03/28 11:21:37;;;;;;;14.80;11.38;;;;;;;19.91;60.76;102204.56;5016501;28;20160;-75
2021/03/28 11:24:39;;;;;;;15.57;11.95;;;;;;;20.35;61.34;102203.97;5016938;28;20029;-77
2021/03/28 11:27:40;;;;;;;19.13;12.65;;;;;;;20.44;61.13;102198.34;5003267;28;20374;-76
2021/03/28 11:30:44;;;;;;;19.75;13.88;;;;;;;20.44;60.07;102195.66;5017181;28;20054;-75
2021/03/28 11:33:36;;;;;;;19.73;14.25;;;;;;;20.61;61.06;102195.94;5016264;28;20041;-76
2021/03/28 11:36:32;;;;;;;23.42;15.57;;;;;;;20.66;59.39;102191.31;5016476;28;20017;-76
2021/03/28 11:39:29;;;;;;;24.10;16.08;;;;;;;20.38;61.47;102195.91;5016725;28;20026;-76
2021/03/28 11:42:26;;;;;;;21.65;16.75;;;;;;;20.82;61.13;102183.66;5015676;28;20037;-75
2021/03/28 11:45:33;;;;;;;23.98;17.05;;;;;;;20.58;60.38;102176.56;5015951;28;20109;-76
2021/03/28 11:48:30;;;;;;;25.75;17.05;;;;;;;20.44;60.81;102171.72;5015867;28;20526;-76
2021/03/28 11:51:18;;;;;;;24.23;16.95;;;;;;;20.76;59.79;102182.09;5015875;28;20046;-75
2021/03/28 11:54:11;;;;;;;23.17;17.63;;;;;;;20.85;60.34;102165.75;5001932;28;20399;-75
2021/03/28 11:56:56;;;;;;;22.60;17.42;;;;;;;21.02;59.40;102155.38;5016091;28;20490;-76
2021/03/28 11:59:55;;;;;;;24.60;16.15;;;;;;;20.80;59.25;102166.84;5015776;28;20026;-76
2021/03/28 12:02:40;;;;;;;19.73;15.55;;;;;;;20.87;59.49;102161.25;5016020;28;20485;-76
2021/03/28 12:05:49;;;;;;;21.27;14.38;;;;;;;20.80;58.73;102159.72;5016108;28;20061;-75
2021/03/28 12:09:00;;;;;;;20.33;15.13;;;;;;;19.98;62.04;102152.88;5002107;28;20065;-75
2021/03/28 12:11:49;;;;;;;20.45;15.32;;;;;;;20.25;63.09;102159.09;5014963;28;20108;-75
2021/03/28 12:14:36;;;;;;;20.67;15.20;;;;;;;20.60;62.65;102150.72;5002016;28;20443;-76
2021/03/28 12:17:33;;;;;;;19.90;14.57;;;;;;;20.79;62.82;102150.00;5015772;28;20034;-76
2021/03/28 12:20:25;;;;;;;19.98;15.85;;;;;;;20.90;62.08;102145.13;5015241;28;20105;-76
2021/03/28 12:23:23;;;;;;;21.08;15.35;;;;;;;21.00;62.04;102145.69;5016075;28;20033;-76
2021/03/28 12:26:17;;;;;;;20.40;15.20;;;;;;;21.35;62.34;102145.22;5015700;28;20025;-76
2021/03/28 12:29:33;;;;;;;21.58;14.73;;;;;;;21.49;62.42;102149.06;5016151;28;20443;-76
2021/03/28 12:32:56;;;;;;;24.42;15.85;;;;;;;21.42;62.53;102136.06;5015614;28;20104;-76
2021/03/28 12:35:45;;;;;;;22.58;15.27;;;;;;;21.28;63.53;102131.25;5013385;28;20108;-76
2021/03/28 12:38:41;;;;;;;23.02;16.40;;;;;;;20.97;65.46;102133.34;5015004;28;20026;-75
2021/03/28 12:41:33;;;;;;;22.23;15.25;;;;;;;20.52;68.67;102129.69;5001969;28;20113;-76
2021/03/28 12:44:27;;;;;;;23.77;16.17;;;;;;;20.35;69.06;102133.88;5001629;28;20033;-75
2021/03/28 12:47:23;;;;;;;19.60;15.43;;;;;;;20.15;71.72;102128.38;5001027;28;20021;-76
2021/03/28 12:50:15;;;;;;;21.13;14.55;;;;;;;20.53;72.07;102131.44;5000154;28;20030;-75
2021/03/28 12:53:33;;;;;;;14.05;11.35;;;;;;;20.25;72.85;102124.50;5000597;28;20083;-75
2021/03/28 12:56:25;;;;;;;13.40;10.13;;;;;;;20.64;72.17;102115.94;4962249;28;20038;-76
2021/03/28 12:59:32;;;;;;;16.15;10.95;;;;;;;20.50;72.08;102114.69;5015337;28;20094;-75
2021/03/28 13:02:31;;;;;;;14.57;11.00;;;;;;;20.49;74.63;102107.66;5014390;28;20026;-77
2021/03/28 13:05:36;;;;;;;15.93;10.70;;;;;;;20.58;77.75;102105.50;5015522;28;20485;-76
2021/03/28 13:08:22;;;;;;;13.77;10.57;;;;;;;20.63;76.71;102108.88;5014413;28;20108;-77
2021/03/28 13:11:08;;;;;;;18.77;10.65;;;;;;;20.42;79.73;102091.03;5001249;28;20395;-76
2021/03/28 13:13:54;;;;;;;15.65;11.10;;;;;;;20.40;81.25;102095.53;5014904;28;20038;-79
2021/03/28 13:16:54;;;;;;;15.90;11.77;;;;;;;20.04;83.11;102095.91;5014129;28;20108;-76
2021/03/28 13:19:43;;;;;;;20.30;13.02;;;;;;;20.14;83.44;102098.25;5014077;28;20095;-76
2021/03/28 13:22:35;;;;;;;18.48;13.70;;;;;;;20.50;82.54;102093.41;5013451;28;20036;-77
2021/03/28 13:25:30;;;;;;;21.15;14.10;;;;;;;20.23;86.40;102084.63;5014637;28;20108;-76
2021/03/28 13:28:21;;;;;;;19.15;14.43;;;;;;;19.95;89.17;102085.59;5014671;28;20045;-76
2021/03/28 13:31:21;;;;;;;17.67;13.77;;;;;;;20.28;89.27;102082.66;5013861;28;20022;-75
2021/03/28 13:34:16;;;;;;;19.38;13.85;;;;;;;20.35;89.16;102068.22;5000367;28;20022;-75
2021/03/28 13:37:14;;;;;;;17.83;13.63;;;;;;;20.31;89.76;102077.22;5014801;28;20105;-75
2021/03/28 13:40:11;;;;;;;20.00;14.10;;;;;;;20.27;91.98;102064.94;5013668;28;20362;-76
2021/03/28 13:43:01;;;;;;;19.48;13.13;;;;;;;20.06;92.22;102059.47;5000673;28;20469;-75
2021/03/28 13:45:49;;;;;;;17.52;12.32;;;;;;;20.11;92.11;102057.56;5014382;28;20030;-76
2021/03/28 13:48:35;;;;;;;18.30;11.98;;;;;;;20.58;89.41;102059.38;5014050;28;20096;-75
2021/03/28 13:51:23;;;;;;;18.00;8.65;;;;;;;20.67;80.77;102059.00;5013403;28;20383;-75
2021/03/28 13:54:14;;;;;;;15.98;8.00;;;;;;;21.04;76.21;102059.38;5000098;28;20343;-76